Time;durP1;ratioP1;P1;durP2;ratioP2;P2;SDS_P1;SDS_P2;PMS_P1;PMS_P2;Temp;Humidity;BMP_temperature;BMP_pressure;BME280_temperature;BME280_humidity;BME280_pressure;Samples;Min_cycle;Max_cycle;Signal;HPM_P1;HPM_P2
2022/08/19 00:00:58;;;;;;;10.70;9.60;;;;;;;25.03;56.01;98509.51;238008;1193;139269;-57
2022/08/19 00:06:03;;;;;;;16.80;10.20;;;;;;;25.00;56.09;98505.81;238355;1193;139043;-58
2022/08/19 00:11:07;;;;;;;14.90;10.10;;;;;;;24.96;56.19;98508.01;238450;1193;139735;-58
2022/08/19 00:16:20;;;;;;;13.00;10.30;;;;;;;24.93;56.28;98502.92;238457;1193;141424;-58
2022/08/19 00:21:28;;;;;;;12.30;9.60;;;;;;;24.90;56.37;98499.73;238431;1193;139837;-57
2022/08/19 00:26:31;;;;;;;13.30;10.50;;;;;;;24.84;56.35;98503.79;237333;1193;139661;-57
2022/08/19 00:31:35;;;;;;;11.70;10.30;;;;;;;24.78;56.47;98506.76;238512;1193;138577;-56
2022/08/19 00:36:39;;;;;;;13.90;10.40;;;;;;;24.69;56.61;98509.92;238506;1193;139384;-57
2022/08/19 00:41:45;;;;;;;14.00;10.80;;;;;;;24.60;56.77;98505.25;237589;1193;139837;-55
2022/08/19 00:46:52;;;;;;;15.20;11.00;;;;;;;24.51;56.85;98498.79;238571;1193;138812;-57
2022/08/19 00:52:13;;;;;;;12.50;11.10;;;;;;;24.49;56.96;98504.67;237828;1193;139156;-57
2022/08/19 00:57:22;;;;;;;12.90;11.30;;;;;;;24.47;57.19;98503.90;237972;1193;139302;-57
2022/08/19 01:02:27;;;;;;;15.70;11.10;;;;;;;24.43;57.17;98496.95;238155;1192;139053;-57
2022/08/19 01:07:30;;;;;;;12.90;10.50;;;;;;;24.38;57.30;98494.48;237698;1193;138818;-58
2022/08/19 01:12:40;;;;;;;12.70;10.80;;;;;;;24.30;57.44;98492.42;238053;1193;139838;-58
2022/08/19 01:17:44;;;;;;;14.90;10.60;;;;;;;24.24;57.53;98492.64;238143;1194;139998;-59
2022/08/19 01:22:51;;;;;;;13.40;9.70;;;;;;;24.16;57.66;98483.83;237751;1194;139912;-58
2022/08/19 01:27:55;;;;;;;11.60;9.70;;;;;;;24.13;57.72;98475.39;237954;1194;140375;-59
2022/08/19 01:33:05;;;;;;;11.20;10.10;;;;;;;24.13;57.89;98466.73;238180;1193;138649;-59
2022/08/19 01:38:21;;;;;;;15.20;10.20;;;;;;;24.16;58.13;98464.52;237997;1193;139922;-59
2022/08/19 01:43:24;;;;;;;13.00;10.20;;;;;;;24.16;58.16;98451.91;237687;1194;140288;-58
2022/08/19 01:48:29;;;;;;;13.20;9.90;;;;;;;24.16;58.12;98460.73;238023;1193;138626;-59
2022/08/19 01:53:32;;;;;;;11.70;10.10;;;;;;;24.14;58.08;98467.45;238220;1193;139376;-58
2022/08/19 01:58:44;;;;;;;12.40;9.50;;;;;;;24.09;58.13;98469.73;238310;1193;140014;-59
2022/08/19 02:03:48;;;;;;;14.60;9.80;;;;;;;24.07;58.11;98465.67;238242;1194;142264;-59
2022/08/19 02:08:51;;;;;;;11.40;9.70;;;;;;;24.06;58.31;98469.60;237824;1194;139225;-58
2022/08/19 02:14:01;;;;;;;13.30;10.10;;;;;;;24.04;58.35;98468.04;237998;1193;139361;-56
2022/08/19 02:19:05;;;;;;;11.00;9.50;;;;;;;24.00;58.48;98462.60;238131;1193;139495;-57
2022/08/19 02:24:07;;;;;;;13.90;9.90;;;;;;;23.94;58.34;98459.57;238073;1193;138986;-57
2022/08/19 02:29:10;;;;;;;11.50;10.10;;;;;;;23.86;58.50;98447.13;237913;1194;139951;-57
2022/08/19 02:34:13;;;;;;;11.80;8.80;;;;;;;23.81;58.63;98449.88;238308;1193;138937;-57
2022/08/19 02:39:17;;;;;;;12.00;9.20;;;;;;;23.82;58.71;98444.54;238203;1193;139483;-58
2022/08/19 02:44:21;;;;;;;10.80;9.10;;;;;;;23.85;58.82;98448.28;237961;1193;139020;-58
2022/08/19 02:49:33;;;;;;;11.50;9.30;;;;;;;23.86;58.79;98452.39;238047;1193;139865;-57
2022/08/19 02:54:38;;;;;;;11.60;9.70;;;;;;;23.82;58.75;98455.86;237495;1194;138448;-56
2022/08/19 02:59:41;;;;;;;11.20;10.00;;;;;;;23.77;58.76;98452.26;238110;1194;139311;-56
2022/08/19 03:04:44;;;;;;;13.60;10.00;;;;;;;23.69;58.81;98458.11;238063;1193;139088;-55
2022/08/19 03:09:47;;;;;;;12.70;10.60;;;;;;;23.59;58.89;98468.05;238179;1193;138889;-56
2022/08/19 03:14:50;;;;;;;10.10;9.00;;;;;;;23.51;58.98;98473.27;238199;1193;138866;-58
2022/08/19 03:19:53;;;;;;;12.50;9.10;;;;;;;23.46;59.11;98477.82;238046;1193;139112;-58
2022/08/19 03:24:56;;;;;;;13.50;9.80;;;;;;;23.44;59.32;98486.27;237956;1194;139566;-58
2022/08/19 03:29:59;;;;;;;11.90;9.20;;;;;;;23.43;59.48;98482.15;238169;1194;138771;-56
2022/08/19 03:35:03;;;;;;;12.10;9.90;;;;;;;23.44;59.61;98486.42;238074;1193;140767;-58
2022/08/19 03:40:06;;;;;;;12.80;10.00;;;;;;;23.43;59.60;98476.85;238085;1195;140026;-59
2022/08/19 03:45:15;;;;;;;15.40;10.30;;;;;;;23.39;59.61;98479.03;238141;1193;138743;-57
2022/08/19 03:50:19;;;;;;;11.80;10.60;;;;;;;23.34;59.60;98479.97;237676;1194;142088;-57
2022/08/19 03:55:22;;;;;;;14.90;9.60;;;;;;;23.31;59.75;98482.27;238000;1195;139581;-57
2022/08/19 04:00:25;;;;;;;12.00;9.80;;;;;;;23.29;59.75;98488.39;237851;1194;139804;-57
2022/08/19 04:05:29;;;;;;;15.80;10.60;;;;;;;23.31;59.93;98493.77;238237;1193;142982;-57
2022/08/19 04:10:38;;;;;;;12.50;10.90;;;;;;;23.35;60.07;98485.29;238290;1193;140169;-56
2022/08/19 04:15:42;;;;;;;14.20;10.80;;;;;;;23.37;59.94;98480.55;238054;1194;139715;-56
2022/08/19 04:20:47;;;;;;;19.10;15.30;;;;;;;23.35;60.06;98477.85;238052;1193;139383;-57
2022/08/19 04:25:50;;;;;;;22.60;19.30;;;;;;;23.32;60.08;98470.50;238020;1193;139135;-56
2022/08/19 04:30:54;;;;;;;17.40;14.30;;;;;;;23.31;60.12;98482.36;238043;1194;139474;-56
2022/08/19 04:35:58;;;;;;;18.50;12.60;;;;;;;23.28;60.05;98489.67;238034;1193;139109;-56
2022/08/19 04:46:25;;;;;;;38.60;12.90;;;;;;;23.31;60.17;98484.15;238009;1193;141039;-57
2022/08/19 04:51:49;;;;;;;31.00;13.00;;;;;;;23.33;60.29;98498.60;238303;1193;139325;-57
2022/08/19 04:56:53;;;;;;;36.10;12.20;;;;;;;23.35;60.40;98509.59;237643;1195;140727;-57
2022/08/19 05:01:56;;;;;;;21.10;11.30;;;;;;;23.35;60.47;98520.00;237905;1193;139523;-56
2022/08/19 05:07:00;;;;;;;169.90;142.60;;;;;;;23.41;60.78;98525.89;237681;1194;139261;-57
2022/08/19 05:12:05;;;;;;;29.90;22.70;;;;;;;23.59;61.26;98530.86;237775;1194;139733;-56
2022/08/19 05:17:08;;;;;;;37.10;25.10;;;;;;;23.82;61.36;98530.04;238082;1193;139969;-57
2022/08/19 05:22:32;;;;;;;25.80;20.20;;;;;;;24.11;61.73;98526.32;237982;1193;140001;-56
2022/08/19 05:27:35;;;;;;;47.60;32.50;;;;;;;24.36;61.52;98531.73;238511;1192;140274;-57
2022/08/19 05:32:39;;;;;;;38.60;28.90;;;;;;;24.52;61.24;98536.24;238559;1192;138891;-57
2022/08/19 05:37:42;;;;;;;42.40;22.30;;;;;;;24.69;61.08;98533.70;238669;1191;139492;-57
2022/08/19 05:42:45;;;;;;;29.20;16.90;;;;;;;24.78;60.50;98542.86;238790;1191;140882;-57
2022/08/19 05:47:58;;;;;;;39.60;29.60;;;;;;;24.83;60.39;98533.52;238656;1191;139004;-58
2022/08/19 05:53:01;;;;;;;36.60;23.90;;;;;;;24.85;60.22;98535.66;238512;1192;139743;-59
2022/08/19 05:58:07;;;;;;;29.00;19.80;;;;;;;24.88;60.09;98533.59;237735;1192;139270;-58
2022/08/19 06:03:10;;;;;;;24.10;15.60;;;;;;;24.94;60.00;98531.24;238899;1191;139741;-58
2022/08/19 06:08:18;;;;;;;26.20;12.60;;;;;;;24.98;59.86;98536.80;238655;1192;138956;-57
2022/08/19 06:13:22;;;;;;;28.90;20.80;;;;;;;25.02;59.90;98526.89;238246;1192;139196;-56
2022/08/19 06:18:25;;;;;;;25.40;19.30;;;;;;;25.04;59.85;98526.36;237330;1192;139074;-58
2022/08/19 06:23:29;;;;;;;16.40;12.90;;;;;;;25.09;59.90;98527.39;238884;1191;139861;-59
2022/08/19 06:28:33;;;;;;;17.30;11.50;;;;;;;25.14;59.77;98531.02;238636;1192;139606;-60
2022/08/19 06:33:37;;;;;;;15.30;10.70;;;;;;;25.18;59.71;98533.91;238696;1192;139320;-58
2022/08/19 06:38:40;;;;;;;14.60;10.40;;;;;;;25.25;59.62;98538.20;238609;1192;140004;-60
2022/08/19 06:43:44;;;;;;;16.80;9.90;;;;;;;25.34;59.69;98537.98;238544;1192;139062;-60
2022/08/19 06:48:47;;;;;;;12.30;9.80;;;;;;;25.42;59.57;98543.89;238716;1192;141151;-61
2022/08/19 06:53:53;;;;;;;13.90;10.60;;;;;;;25.50;59.49;98545.44;238669;1192;139496;-60
2022/08/19 06:58:58;;;;;;;14.30;10.30;;;;;;;25.56;59.59;98541.23;238279;1192;140217;-61
2022/08/19 07:04:02;;;;;;;13.20;10.60;;;;;;;25.59;59.53;98547.29;238768;1192;142081;-62
2022/08/19 07:09:07;;;;;;;18.00;10.30;;;;;;;25.69;59.57;98557.25;238507;1192;139560;-61
2022/08/19 07:14:10;;;;;;;16.70;9.90;;;;;;;25.83;59.56;98573.39;238338;1192;139924;-61
2022/08/19 07:19:26;;;;;;;135.50;100.80;;;;;;;25.97;59.24;98571.05;237420;1192;138575;-58
2022/08/19 07:24:30;;;;;;;22.40;15.60;;;;;;;26.10;59.05;98565.52;238671;1191;140381;-58
2022/08/19 07:29:36;;;;;;;19.40;13.40;;;;;;;26.17;58.91;98563.59;238777;1191;140269;-59
2022/08/19 07:34:40;;;;;;;;;;;;;;;26.25;58.80;98564.40;238693;1192;138831;-58
2022/08/19 07:39:44;;;;;;;22.30;12.70;;;;;;;26.30;58.58;98567.52;238735;1192;126002;-60
2022/08/19 07:44:48;;;;;;;21.70;12.20;;;;;;;26.33;58.54;98568.65;237329;1192;139042;-58
2022/08/19 07:49:52;;;;;;;19.90;11.20;;;;;;;26.33;58.26;98571.63;238406;1193;140133;-58
2022/08/19 07:54:55;;;;;;;17.80;11.20;;;;;;;26.31;58.27;98577.39;237494;1192;139072;-58
2022/08/19 07:59:58;;;;;;;184.20;127.20;;;;;;;26.41;58.52;98575.13;238798;1192;139033;-58
2022/08/19 08:10:24;;;;;;;23.20;12.80;;;;;;;26.80;58.21;98588.73;237177;1192;140217;-58
2022/08/19 08:15:28;;;;;;;21.90;12.40;;;;;;;26.96;57.93;98592.55;236979;1192;138665;-58
2022/08/19 08:20:31;;;;;;;70.50;55.80;;;;;;;27.07;57.51;98590.02;238425;1192;139241;-57
2022/08/19 08:25:36;;;;;;;20.80;14.30;;;;;;;27.20;57.28;98595.61;238338;1192;141014;-57
2022/08/19 08:30:41;;;;;;;20.50;12.20;;;;;;;27.30;57.10;98591.77;238774;1192;139346;-56
2022/08/19 08:35:47;;;;;;;22.50;12.20;;;;;;;27.45;57.13;98593.36;238542;1192;139860;-58
2022/08/19 08:40:58;;;;;;;102.50;75.20;;;;;;;27.56;57.03;98597.76;237707;1191;139029;-60
2022/08/19 08:46:09;;;;;;;27.50;15.20;;;;;;;27.71;56.71;98593.95;238306;1192;139659;-57
2022/08/19 08:51:26;;;;;;;31.20;14.40;;;;;;;27.86;56.46;98590.77;238829;1192;139022;-58
2022/08/19 08:56:39;;;;;;;27.30;13.50;;;;;;;27.99;56.48;98583.92;238864;1192;139358;-58
2022/08/19 09:01:43;;;;;;;21.20;12.50;;;;;;;28.04;56.01;98582.84;238806;1192;139789;-58
2022/08/19 09:07:03;;;;;;;113.60;92.30;;;;;;;28.17;55.90;98578.81;238743;1192;140662;-58
2022/08/19 09:12:23;;;;;;;21.30;14.00;;;;;;;28.35;55.73;98582.84;238700;1192;139930;-58
2022/08/19 09:17:30;;;;;;;22.10;11.70;;;;;;;28.51;55.41;98574.92;238654;1192;139393;-57
2022/08/19 09:22:35;;;;;;;43.10;32.10;;;;;;;28.68;55.28;98575.44;238746;1192;139522;-57
2022/08/19 09:27:42;;;;;;;24.00;12.50;;;;;;;28.85;54.97;98570.25;238676;1192;138804;-58
2022/08/19 09:32:45;;;;;;;28.60;11.80;;;;;;;29.03;54.73;98570.19;238624;1192;139842;-57
2022/08/19 09:37:56;;;;;;;25.40;11.60;;;;;;;29.19;54.47;98557.48;237792;1192;138915;-57
2022/08/19 09:43:02;;;;;;;24.30;11.80;;;;;;;29.35;54.08;98553.41;238398;1192;140194;-58
2022/08/19 09:48:14;;;;;;;24.50;11.20;;;;;;;29.48;53.60;98552.00;238589;1192;139271;-58
2022/08/19 09:53:26;;;;;;;67.00;46.50;;;;;;;29.65;53.44;98553.42;238568;1192;139265;-57
2022/08/19 09:58:31;;;;;;;21.10;12.70;;;;;;;29.84;53.52;98550.02;238560;1191;139291;-57
2022/08/19 10:03:35;;;;;;;19.80;12.70;;;;;;;30.00;52.90;98549.10;238601;1192;139496;-58
2022/08/19 10:08:39;;;;;;;;;;;;;;;30.18;52.97;98543.95;238522;1192;139238;-58
2022/08/19 10:13:52;;;;;;;23.90;11.20;;;;;;;30.39;52.39;98534.88;237916;1190;124938;-58
2022/08/19 10:18:55;;;;;;;18.00;9.20;;;;;;;30.59;52.15;98535.55;238979;1190;138893;-58
2022/08/19 10:24:04;;;;;;;15.20;8.90;;;;;;;30.78;51.49;98534.78;238740;1191;140066;-58
2022/08/19 10:29:07;;;;;;;14.10;8.80;;;;;;;30.99;50.99;98530.92;238797;1190;139004;-59
2022/08/19 10:34:11;;;;;;;12.20;8.10;;;;;;;31.18;50.76;98524.64;238922;1190;138576;-59
2022/08/19 10:39:30;;;;;;;12.40;7.50;;;;;;;31.36;50.18;98521.66;239112;1190;139012;-59
2022/08/19 10:44:46;;;;;;;14.70;11.80;;;;;;;31.55;49.72;98518.34;238624;1190;138703;-59
2022/08/19 11:00:35;;;;;;;14.40;8.10;;;;;;;31.79;48.80;98527.99;238808;1192;139006;-57
2022/08/19 11:05:39;;;;;;;53.00;47.60;;;;;;;31.93;48.75;98525.33;238182;1186;138919;-58
2022/08/19 11:10:43;;;;;;;13.90;9.70;;;;;;;32.05;48.60;98525.99;238215;1192;140075;-58
2022/08/19 11:16:10;;;;;;;12.10;8.40;;;;;;;32.20;48.47;98526.20;238974;1191;139857;-58
2022/08/19 11:21:13;;;;;;;12.20;7.60;;;;;;;32.33;47.96;98509.80;238983;1190;140190;-59
2022/08/19 11:26:18;;;;;;;13.50;8.00;;;;;;;32.47;47.64;98500.73;238208;1192;139126;-59
2022/08/19 11:31:27;;;;;;;12.20;7.30;;;;;;;32.65;47.44;98502.54;238877;1192;138868;-59
2022/08/19 11:36:34;;;;;;;47.70;39.10;;;;;;;32.78;47.20;98498.55;238851;1191;139069;-58
2022/08/19 11:41:37;;;;;;;11.50;8.20;;;;;;;32.92;46.89;98490.59;238877;1192;139093;-58
2022/08/19 11:46:45;;;;;;;9.70;7.70;;;;;;;33.04;46.57;98488.64;238203;1190;140263;-58
2022/08/19 11:51:50;;;;;;;10.90;7.60;;;;;;;33.18;46.66;98487.89;238988;1192;140127;-58
2022/08/19 11:56:55;;;;;;;11.30;6.80;;;;;;;33.29;46.28;98479.88;238819;1192;140518;-58
2022/08/19 12:01:58;;;;;;;15.70;7.40;;;;;;;33.37;46.15;98485.00;238785;1191;139031;-60
2022/08/19 12:07:03;;;;;;;10.90;7.50;;;;;;;33.51;45.70;98493.30;238748;1190;139200;-58
2022/08/19 12:12:06;;;;;;;9.30;7.30;;;;;;;33.68;45.77;98493.05;238707;1192;138915;-59
2022/08/19 12:17:11;;;;;;;9.40;7.20;;;;;;;33.84;45.65;98492.09;238791;1191;140859;-58
2022/08/19 12:22:15;;;;;;;13.20;8.50;;;;;;;33.97;45.31;98495.42;238962;1190;139153;-58
2022/08/19 12:27:18;;;;;;;10.00;6.70;;;;;;;34.02;44.41;98492.85;238613;1192;139359;-58
2022/08/19 12:32:37;;;;;;;11.30;6.70;;;;;;;34.02;44.01;98490.48;238693;1192;138720;-58
2022/08/19 12:37:42;;;;;;;8.60;6.80;;;;;;;34.13;43.91;98493.52;238731;1191;139320;-59
2022/08/19 12:42:45;;;;;;;11.90;7.90;;;;;;;34.22;43.60;98486.08;238863;1193;138859;-58
2022/08/19 12:47:49;;;;;;;13.40;7.80;;;;;;;34.10;42.91;98480.89;238913;1190;139629;-58
2022/08/19 12:52:57;;;;;;;10.50;6.60;;;;;;;34.24;43.52;98477.14;238795;1192;140231;-57
2022/08/19 12:58:03;;;;;;;;;;;;;;;34.53;43.33;98476.19;238833;1191;139433;-60
2022/08/19 13:03:06;;;;;;;9.20;6.60;;;;;;;34.73;42.74;98471.70;238934;1190;124985;-60
2022/08/19 13:08:09;;;;;;;13.30;6.60;;;;;;;34.81;42.22;98467.49;238563;1191;139667;-58
2022/08/19 13:13:12;;;;;;;10.40;6.30;;;;;;;34.91;42.29;98469.94;238483;1192;139069;-58
2022/08/19 13:18:15;;;;;;;11.80;6.50;;;;;;;35.03;42.01;98466.15;238928;1190;139644;-58
2022/08/19 13:23:18;;;;;;;11.10;5.80;;;;;;;35.14;41.72;98463.34;238751;1192;138858;-58
2022/08/19 13:28:21;;;;;;;9.50;6.20;;;;;;;35.18;40.77;98464.30;238847;1191;140046;-58
2022/08/19 13:33:32;;;;;;;12.60;7.70;;;;;;;35.25;40.54;98459.18;238736;1192;138736;-57
2022/08/19 13:38:36;;;;;;;8.30;6.40;;;;;;;35.25;40.62;98457.14;238263;1190;139151;-57
2022/08/19 13:43:39;;;;;;;11.50;6.50;;;;;;;35.33;40.25;98455.29;238079;1192;138527;-58
2022/08/19 13:48:42;;;;;;;9.00;6.30;;;;;;;35.43;40.02;98450.89;238633;1192;141219;-59
2022/08/19 13:53:45;;;;;;;7.80;6.30;;;;;;;35.48;39.84;98449.58;238529;1191;138960;-58
2022/08/19 13:58:49;;;;;;;7.80;5.40;;;;;;;35.52;39.62;98448.46;236985;1192;138764;-57
2022/08/19 14:03:53;;;;;;;10.80;5.60;;;;;;;35.57;39.25;98442.01;237631;1192;139095;-58
2022/08/19 14:08:56;;;;;;;10.50;6.20;;;;;;;35.61;38.91;98436.87;238094;1192;139165;-57
2022/08/19 14:13:59;;;;;;;7.90;6.80;;;;;;;35.63;38.77;98427.45;237557;1192;138858;-58
2022/08/19 14:19:02;;;;;;;11.50;6.90;;;;;;;35.62;38.78;98426.12;237348;1192;139162;-58
2022/08/19 14:24:06;;;;;;;11.10;6.20;;;;;;;35.53;38.59;98425.64;237988;1190;138379;-58
2022/08/19 14:29:09;;;;;;;9.10;5.90;;;;;;;35.38;38.32;98421.27;238418;1191;139013;-57
2022/08/19 14:34:12;;;;;;;9.80;5.70;;;;;;;35.19;38.22;98418.20;238689;1192;139166;-57
2022/08/19 14:39:15;;;;;;;12.90;5.40;;;;;;;34.97;38.03;98409.52;237278;1190;139629;-56
2022/08/19 14:44:18;;;;;;;9.50;5.60;;;;;;;34.69;37.77;98413.23;238960;1190;138712;-57
2022/08/19 14:49:22;;;;;;;10.20;5.30;;;;;;;34.43;37.77;98420.66;238711;1191;138922;-58
2022/08/19 14:54:37;;;;;;;9.80;4.90;;;;;;;34.14;37.64;98423.02;238548;1192;139626;-58
2022/08/19 14:59:41;;;;;;;9.00;6.00;;;;;;;33.91;37.42;98420.98;238966;1190;139282;-58
2022/08/19 15:04:44;;;;;;;8.90;5.60;;;;;;;33.66;37.63;98421.27;238665;1191;139057;-59
2022/08/19 15:09:50;;;;;;;7.80;6.50;;;;;;;33.40;37.90;98415.02;238853;1190;139594;-58
2022/08/19 15:14:54;;;;;;;11.40;7.10;;;;;;;33.25;38.26;98408.21;238533;1192;138992;-58
2022/08/19 15:19:58;;;;;;;9.50;5.70;;;;;;;33.10;38.57;98398.00;238518;1192;139097;-59
2022/08/19 15:25:05;;;;;;;125.30;109.10;;;;;;;32.96;38.67;98385.84;238822;1191;139546;-58
2022/08/19 15:30:10;;;;;;;19.00;14.40;;;;;;;32.85;39.37;98381.56;238711;1192;139398;-58
2022/08/19 15:35:13;;;;;;;10.10;6.60;;;;;;;32.77;39.58;98382.89;238884;1192;140005;-58
2022/08/19 15:40:16;;;;;;;10.50;7.30;;;;;;;32.65;39.76;98372.52;238686;1192;138676;-58
2022/08/19 15:45:21;;;;;;;11.60;7.50;;;;;;;32.54;40.08;98376.48;238582;1192;138891;-58
2022/08/19 15:50:24;;;;;;;10.40;7.40;;;;;;;32.43;40.42;98376.31;238514;1192;141181;-58
2022/08/19 15:55:33;;;;;;;12.60;7.40;;;;;;;32.36;40.81;98372.33;238824;1191;138898;-58
2022/08/19 16:11:24;;;;;;;14.10;7.50;;;;;;;32.15;41.54;98367.02;238652;1192;140659;-58
2022/08/19 16:16:33;;;;;;;12.20;8.30;;;;;;;32.10;41.73;98367.88;238688;1192;139104;-59
2022/08/19 16:21:38;;;;;;;10.50;7.50;;;;;;;32.03;41.85;98380.38;238943;1191;138312;-59
2022/08/19 16:26:44;;;;;;;9.70;7.50;;;;;;;31.95;41.97;98382.10;238745;1191;139616;-58
2022/08/19 16:31:48;;;;;;;11.00;7.60;;;;;;;31.87;42.02;98388.68;238698;1190;138944;-57
2022/08/19 16:36:51;;;;;;;;;;;;;;;31.76;42.20;98385.78;238568;1192;138932;-58
2022/08/19 16:41:55;;;;;;;10.90;8.90;;;;;;;31.66;42.40;98385.54;238925;1190;125326;-58
2022/08/19 16:46:58;;;;;;;15.70;8.70;;;;;;;31.55;42.43;98390.60;238780;1192;139004;-57
2022/08/19 16:52:04;;;;;;;17.40;9.20;;;;;;;31.45;42.67;98400.17;238667;1192;139156;-58
2022/08/19 16:57:07;;;;;;;116.50;96.20;;;;;;;31.39;42.75;98404.23;238581;1192;139166;-58
2022/08/19 17:02:13;;;;;;;24.10;19.30;;;;;;;31.29;42.95;98407.14;238813;1190;139988;-58
2022/08/19 17:07:16;;;;;;;17.00;10.10;;;;;;;31.21;43.03;98413.42;238719;1191;139409;-58
2022/08/19 17:12:19;;;;;;;16.30;11.50;;;;;;;31.13;43.27;98417.98;238511;1190;139605;-58
2022/08/19 17:17:22;;;;;;;13.00;9.70;;;;;;;31.05;43.39;98417.71;238497;1191;139592;-58
2022/08/19 17:22:30;;;;;;;11.30;9.00;;;;;;;30.96;43.40;98411.52;238632;1191;138906;-56
2022/08/19 17:27:33;;;;;;;13.80;9.00;;;;;;;30.82;43.53;98403.16;238689;1192;139717;-56
2022/08/19 17:32:37;;;;;;;11.30;8.50;;;;;;;30.77;43.82;98403.35;238749;1192;139226;-57
2022/08/19 17:37:41;;;;;;;10.20;7.90;;;;;;;30.71;44.05;98414.35;238655;1192;138838;-57
2022/08/19 17:42:44;;;;;;;10.30;8.40;;;;;;;30.64;44.40;98415.41;238752;1190;139937;-59
2022/08/19 17:47:47;;;;;;;27.00;24.40;;;;;;;30.60;44.41;98415.92;238870;1190;140743;-58
2022/08/19 17:52:51;;;;;;;17.30;12.00;;;;;;;30.54;44.51;98413.20;238844;1190;139064;-58
2022/08/19 17:57:54;;;;;;;348.60;310.60;;;;;;;30.50;44.74;98419.26;239000;1190;139221;-58
2022/08/19 18:03:01;;;;;;;23.00;17.80;;;;;;;30.49;44.88;98431.31;238828;1190;139486;-58
2022/08/19 18:08:09;;;;;;;130.60;113.90;;;;;;;30.45;45.17;98437.48;238772;1191;139979;-58
2022/08/19 18:13:12;;;;;;;24.30;21.80;;;;;;;30.41;44.95;98441.02;238696;1192;140821;-59
2022/08/19 18:18:20;;;;;;;16.70;11.50;;;;;;;30.32;45.31;98445.05;238735;1191;139472;-58
2022/08/19 18:23:23;;;;;;;14.20;10.70;;;;;;;30.24;45.60;98458.45;238659;1190;139274;-58
2022/08/19 18:28:47;;;;;;;34.10;24.60;;;;;;;30.16;45.87;98465.65;238732;1191;138851;-57
2022/08/19 18:33:51;;;;;;;45.50;37.20;;;;;;;30.14;46.07;98466.36;238839;1191;139741;-54
2022/08/19 18:49:39;;;;;;;31.90;21.40;;;;;;;30.02;46.81;98457.30;238676;1192;139060;-55
2022/08/19 18:54:45;;;;;;;17.30;12.10;;;;;;;29.97;46.99;98459.60;238872;1190;139338;-59
2022/08/19 18:59:50;;;;;;;13.10;9.50;;;;;;;29.93;47.03;98472.89;238863;1190;138914;-57
2022/08/19 19:04:54;;;;;;;13.80;10.70;;;;;;;29.85;46.84;98499.46;238755;1190;138728;-57
2022/08/19 19:09:57;;;;;;;12.90;9.60;;;;;;;29.81;46.73;98546.76;238902;1190;139184;-57
2022/08/19 19:15:04;;;;;;;13.60;7.90;;;;;;;29.77;46.66;98568.11;238799;1190;138785;-58
2022/08/19 19:20:08;;;;;;;17.40;8.20;;;;;;;29.74;46.67;98568.13;238785;1190;138886;-57
2022/08/19 19:25:12;;;;;;;17.40;8.80;;;;;;;29.70;46.76;98581.63;238555;1192;138946;-57
2022/08/19 19:30:15;;;;;;;15.00;8.30;;;;;;;29.63;46.69;98591.04;238651;1190;139689;-58
2022/08/19 19:35:18;;;;;;;19.10;6.60;;;;;;;29.55;46.95;98608.50;238846;1191;139037;-58
2022/08/19 19:40:21;;;;;;;18.00;6.50;;;;;;;29.39;47.31;98606.60;239032;1192;139589;-57
2022/08/19 19:45:25;;;;;;;23.70;7.60;;;;;;;29.25;47.48;98601.23;238528;1191;138947;-58
2022/08/19 19:50:29;;;;;;;13.20;6.50;;;;;;;29.06;47.81;98599.92;238756;1192;139336;-58
2022/08/19 19:55:31;;;;;;;17.30;6.80;;;;;;;28.89;48.22;98600.38;238853;1190;138807;-58
2022/08/19 20:00:35;;;;;;;15.10;8.70;;;;;;;28.77;48.48;98589.91;238945;1191;139156;-58
2022/08/19 20:05:38;;;;;;;16.60;7.20;;;;;;;28.69;48.82;98584.45;238863;1190;139389;-58
2022/08/19 20:10:42;;;;;;;10.90;6.30;;;;;;;28.62;49.02;98586.24;238916;1191;139591;-59
2022/08/19 20:15:45;;;;;;;15.60;6.70;;;;;;;28.53;49.36;98591.25;238893;1192;138872;-58
2022/08/19 20:20:49;;;;;;;12.60;6.60;;;;;;;28.46;49.40;98588.43;238731;1191;138819;-59
2022/08/19 20:25:53;;;;;;;16.10;7.00;;;;;;;28.40;49.77;98586.73;238822;1191;139694;-58
2022/08/19 20:30:56;;;;;;;13.10;6.80;;;;;;;28.34;50.01;98588.31;238827;1191;140573;-57
2022/08/19 20:36:00;;;;;;;14.10;7.00;;;;;;;28.26;50.08;98599.56;238743;1192;138842;-58
2022/08/19 20:41:04;;;;;;;11.90;6.50;;;;;;;28.20;50.24;98607.26;238431;1190;139059;-58
2022/08/19 20:46:08;;;;;;;9.10;6.10;;;;;;;28.10;50.47;98610.35;238813;1191;139897;-57
2022/08/19 20:51:12;;;;;;;11.20;6.40;;;;;;;27.97;50.60;98603.21;238932;1192;138814;-57
2022/08/19 20:56:15;;;;;;;10.50;6.80;;;;;;;27.86;51.08;98611.21;238724;1191;138810;-58
2022/08/19 21:01:18;;;;;;;13.10;6.50;;;;;;;27.72;51.17;98624.88;238732;1192;138978;-58
2022/08/19 21:06:21;;;;;;;12.50;6.00;;;;;;;27.58;51.48;98622.32;238897;1190;139946;-58
2022/08/19 21:11:24;;;;;;;10.70;6.90;;;;;;;27.41;51.78;98608.52;239014;1190;140666;-58
2022/08/19 21:16:27;;;;;;;11.70;6.00;;;;;;;27.23;52.06;98607.80;238969;1191;138514;-59
2022/08/19 21:21:32;;;;;;;11.00;5.80;;;;;;;27.10;52.51;98606.04;238941;1191;139168;-57
2022/08/19 21:26:34;;;;;;;13.20;6.30;;;;;;;27.05;52.87;98612.75;238849;1192;139284;-56
2022/08/19 21:31:38;;;;;;;12.60;6.30;;;;;;;27.04;53.19;98606.83;238862;1191;138896;-59
2022/08/19 21:36:41;;;;;;;14.10;6.40;;;;;;;27.03;53.37;98600.48;238924;1191;140800;-58
2022/08/19 21:41:43;;;;;;;9.80;6.50;;;;;;;26.97;53.43;98603.35;238974;1191;138428;-58
2022/08/19 21:46:46;;;;;;;12.30;6.30;;;;;;;26.93;53.61;98607.86;238509;1192;138732;-58
2022/08/19 21:51:52;;;;;;;11.00;6.30;;;;;;;26.88;53.69;98599.73;239092;1192;139243;-58
2022/08/19 21:56:55;;;;;;;11.60;6.70;;;;;;;26.90;53.80;98598.64;238882;1191;139471;-58
2022/08/19 22:01:58;;;;;;;11.10;6.00;;;;;;;26.87;53.74;98599.73;238990;1190;141168;-57
2022/08/19 22:07:21;;;;;;;10.70;6.20;;;;;;;26.84;53.93;98598.95;238790;1191;138957;-58
2022/08/19 22:12:28;;;;;;;9.00;6.80;;;;;;;26.77;53.94;98592.05;238624;1192;138781;-57
2022/08/19 22:17:32;;;;;;;11.00;6.80;;;;;;;26.71;54.23;98601.29;238760;1191;139063;-58
2022/08/19 22:22:36;;;;;;;12.50;7.00;;;;;;;26.64;54.45;98609.99;238998;1190;139999;-58
2022/08/19 22:27:39;;;;;;;10.80;6.90;;;;;;;26.56;54.78;98614.52;238997;1190;138702;-58
2022/08/19 22:32:45;;;;;;;13.30;7.40;;;;;;;26.50;54.99;98621.44;238921;1190;138922;-59
2022/08/19 22:37:50;;;;;;;11.70;6.90;;;;;;;26.41;55.16;98619.25;238898;1192;138819;-58
2022/08/19 22:43:02;;;;;;;13.90;6.80;;;;;;;26.30;55.43;98624.89;238716;1192;141782;-58
2022/08/19 22:48:07;;;;;;;13.70;6.10;;;;;;;26.20;55.69;98622.86;238986;1191;139902;-58
2022/08/19 22:53:11;;;;;;;11.70;6.90;;;;;;;26.14;56.12;98624.35;238943;1191;140024;-57
2022/08/19 22:58:14;;;;;;;15.10;7.30;;;;;;;26.11;56.45;98617.66;239013;1191;139232;-57
2022/08/19 23:03:29;;;;;;;14.40;7.30;;;;;;;26.06;56.69;98617.40;239150;1192;139318;-57
2022/08/19 23:08:32;;;;;;;13.30;7.50;;;;;;;25.94;56.57;98616.73;239031;1190;140729;-56
2022/08/19 23:13:38;;;;;;;13.80;7.40;;;;;;;25.83;56.94;98618.66;238839;1191;139375;-57
2022/08/19 23:18:41;;;;;;;14.10;7.10;;;;;;;25.79;57.16;98616.30;238966;1190;138810;-58
2022/08/19 23:23:44;;;;;;;16.20;7.10;;;;;;;25.79;57.16;98609.73;239049;1191;139624;-58
2022/08/19 23:34:09;;;;;;;17.90;6.70;;;;;;;25.83;57.32;98608.84;239113;1190;139155;-58
2022/08/19 23:39:12;;;;;;;11.70;6.70;;;;;;;25.81;57.31;98618.02;239061;1191;139445;-57
2022/08/19 23:44:16;;;;;;;13.50;7.30;;;;;;;25.76;57.30;98609.37;239003;1191;141555;-58
2022/08/19 23:49:20;;;;;;;13.40;6.30;;;;;;;25.72;57.47;98627.39;238829;1191;140005;-58